Time;durP1;ratioP1;P1;durP2;ratioP2;P2;SDS_P1;SDS_P2;PMS_P1;PMS_P2;Temp;Humidity;BMP_temperature;BMP_pressure;BME280_temperature;BME280_humidity;BME280_pressure;Samples;Min_cycle;Max_cycle;Signal;HPM_P1;HPM_P2
2022/02/02 00:00:18;;;;;;;0.40;0.40;;;;;;;;;;5009158;28;20197;-71
2022/02/02 00:02:49;;;;;;;0.40;0.13;;;;;;;;;;5006649;28;20207;-71
2022/02/02 00:05:24;;;;;;;1.70;0.50;;;;;;;;;;5006240;28;20196;-71
2022/02/02 00:07:57;;;;;;;0.07;0.03;;;;;;;;;;5007670;28;20197;-72
2022/02/02 00:10:50;;;;;;;0.20;0.20;;;;;;;;;;5007271;28;20247;-71
2022/02/02 00:13:32;;;;;;;0.30;0.30;;;;;;;;;;5005055;28;20363;-72
2022/02/02 00:16:07;;;;;;;1.20;0.10;;;;;;;;;;5005297;28;20205;-71
2022/02/02 00:18:48;;;;;;;0.00;0.00;;;;;;;;;;5007186;28;20893;-71
2022/02/02 00:21:23;;;;;;;0.20;0.20;;;;;;;;;;5007353;28;20201;-71
2022/02/02 00:23:55;;;;;;;1.00;0.87;;;;;;;;;;5008907;28;20548;-71
2022/02/02 00:26:28;;;;;;;0.37;0.37;;;;;;;;;;5006120;28;20204;-71
2022/02/02 00:29:01;;;;;;;0.00;0.00;;;;;;;;;;5005668;28;22286;-72
2022/02/02 00:31:34;;;;;;;0.20;0.20;;;;;;;;;;5007415;28;20209;-71
2022/02/02 00:34:05;;;;;;;0.23;0.20;;;;;;;;;;5009621;28;20298;-71
2022/02/02 00:36:43;;;;;;;0.10;0.10;;;;;;;;;;5006269;28;20718;-70
2022/02/02 00:39:11;;;;;;;0.13;0.13;;;;;;;;;;5005388;28;20193;-72
2022/02/02 00:41:38;;;;;;;0.47;0.47;;;;;;;;;;5005581;28;20197;-71
2022/02/02 00:44:06;;;;;;;1.20;0.20;;;;;;;;;;5003350;28;20201;-71
2022/02/02 00:46:34;;;;;;;0.10;0.10;;;;;;;;;;5005205;28;20208;-70
2022/02/02 00:49:03;;;;;;;0.10;0.10;;;;;;;;;;5005543;28;20676;-70
2022/02/02 00:51:37;;;;;;;0.10;0.10;;;;;;;;;;5005638;28;20197;-72
2022/02/02 00:54:07;;;;;;;0.73;0.70;;;;;;;;;;5004561;28;20310;-71
2022/02/02 00:56:34;;;;;;;0.47;0.47;;;;;;;;;;5003111;28;20933;-71
2022/02/02 00:59:01;;;;;;;1.03;0.93;;;;;;;;;;5004866;28;20232;-71
2022/02/02 01:01:29;;;;;;;0.37;0.30;;;;;;;;;;5003972;28;20227;-71
2022/02/02 01:03:56;;;;;;;4.13;1.07;;;;;;;;;;5006660;28;20204;-71
2022/02/02 01:06:26;;;;;;;0.00;0.00;;;;;;;;;;5010980;28;20216;-71
2022/02/02 01:11:54;;;;;;;1.40;1.30;;;;;;;;;;5006568;28;20196;-70
2022/02/02 01:17:24;;;;;;;6.70;1.73;;;;;;;;;;5003636;28;20710;-70
2022/02/02 01:20:02;;;;;;;0.10;0.10;;;;;;;;;;5004170;28;20186;-70
2022/02/02 01:28:01;;;;;;;0.97;0.83;;;;;;;;;;5003692;28;20208;-71
2022/02/02 01:30:29;;;;;;;0.00;0.00;;;;;;;;;;5007550;28;20201;-71
2022/02/02 01:32:57;;;;;;;0.00;0.00;;;;;;;;;;5005123;28;20201;-70
2022/02/02 01:35:26;;;;;;;0.90;0.30;;;;;;;;;;5003165;28;20208;-71
2022/02/02 01:37:53;;;;;;;0.10;0.10;;;;;;;;;;5004746;28;20197;-71
2022/02/02 01:40:26;;;;;;;3.57;0.50;;;;;;;;;;5003953;28;20205;-71
2022/02/02 01:43:02;;;;;;;0.93;0.37;;;;;;;;;;5001300;28;20197;-70
2022/02/02 01:45:35;;;;;;;0.23;0.10;;;;;;;;;;5003007;28;20220;-71
2022/02/02 01:48:14;;;;;;;0.07;0.03;;;;;;;;;;5000023;28;20671;-72
2022/02/02 01:50:52;;;;;;;1.07;0.23;;;;;;;;;;5001880;28;20231;-71
2022/02/02 01:53:29;;;;;;;0.63;0.40;;;;;;;;;;5003737;28;20217;-70
2022/02/02 01:55:57;;;;;;;6.10;0.53;;;;;;;;;;5002157;28;20223;-71
2022/02/02 01:58:44;;;;;;;1.80;0.33;;;;;;;;;;5002490;28;20259;-71
2022/02/02 02:01:13;;;;;;;0.50;0.50;;;;;;;;;;5003065;28;20895;-71
2022/02/02 02:03:41;;;;;;;1.70;0.83;;;;;;;;;;5002214;28;20204;-70
2022/02/02 02:06:09;;;;;;;0.00;0.00;;;;;;;;;;5003584;28;20687;-71
2022/02/02 02:08:37;;;;;;;0.30;0.30;;;;;;;;;;5002064;28;20193;-71
2022/02/02 02:11:07;;;;;;;0.57;0.57;;;;;;;;;;5002749;28;20216;-71
2022/02/02 02:14:00;;;;;;;1.60;1.50;;;;;;;;;;5003754;28;20239;-70
2022/02/02 02:16:29;;;;;;;2.27;1.43;;;;;;;;;;5002914;28;20205;-70
2022/02/02 02:18:58;;;;;;;0.57;0.23;;;;;;;;;;5003483;28;20639;-70
2022/02/02 02:21:26;;;;;;;0.90;0.90;;;;;;;;;;5002107;28;20292;-71
2022/02/02 02:23:54;;;;;;;0.00;0.00;;;;;;;;;;5003005;28;20296;-70
2022/02/02 02:26:25;;;;;;;3.47;0.13;;;;;;;;;;5002410;28;20205;-71
2022/02/02 02:29:08;;;;;;;0.77;0.00;;;;;;;;;;5000002;28;20204;-71
2022/02/02 02:31:44;;;;;;;0.00;0.00;;;;;;;;;;5003499;28;20228;-71
2022/02/02 02:34:26;;;;;;;0.40;0.20;;;;;;;;;;5004907;28;20299;-70
2022/02/02 02:37:26;;;;;;;0.13;0.13;;;;;;;;;;5002906;28;20696;-70
2022/02/02 02:40:03;;;;;;;2.13;1.60;;;;;;;;;;5001800;28;20201;-70
2022/02/02 02:56:21;;;;;;;0.30;0.10;;;;;;;;;;4999677;28;20212;-69
2022/02/02 02:58:59;;;;;;;0.00;0.00;;;;;;;;;;5001557;28;20719;-69
2022/02/02 03:01:48;;;;;;;0.00;0.00;;;;;;;;;;5002040;28;20216;-70
2022/02/02 03:32:02;;;;;;;0.10;0.10;;;;;;;;;;5008972;28;20242;-70
2022/02/02 03:34:55;;;;;;;0.33;0.30;;;;;;;;;;5004268;28;20375;-70
2022/02/02 03:51:28;;;;;;;0.10;0.10;;;;;;;;;;5010125;28;20200;-69
2022/02/02 03:54:27;;;;;;;1.47;1.20;;;;;;;;;;5009472;28;20212;-70
2022/02/02 03:57:19;;;;;;;1.07;0.63;;;;;;;;;;5008463;28;20263;-69
2022/02/02 03:59:59;;;;;;;1.30;0.17;;;;;;;;;;5009652;28;20677;-71
2022/02/02 04:02:46;;;;;;;0.17;0.17;;;;;;;;;;5009951;28;20189;-70
2022/02/02 04:05:31;;;;;;;0.27;0.27;;;;;;;;;;5008447;28;20189;-70
2022/02/02 04:08:16;;;;;;;0.20;0.20;;;;;;;;;;5007647;28;20205;-70
2022/02/02 04:10:43;;;;;;;0.97;0.20;;;;;;;;;;5007076;28;20210;-70
2022/02/02 04:13:19;;;;;;;0.00;0.00;;;;;;;;;;5008613;28;20196;-70
2022/02/02 04:38:11;;;;;;;0.10;0.10;;;;;;;;;;5003226;28;20993;-72
2022/02/02 04:51:56;;;;;;;0.20;0.20;;;;;;;;;;5004787;28;20673;-71
2022/02/02 04:54:38;;;;;;;0.20;0.13;;;;;;;;;;5005556;28;20231;-71
2022/02/02 04:57:42;;;;;;;0.03;0.03;;;;;;;;;;5005038;28;20200;-70
2022/02/02 05:00:53;;;;;;;0.30;0.07;;;;;;;;;;5007025;28;20188;-70
2022/02/02 05:06:00;;;;;;;1.80;0.50;;;;;;;;;;5005962;28;20712;-70
2022/02/02 05:08:35;;;;;;;0.10;0.10;;;;;;;;;;5004712;28;20564;-69
2022/02/02 05:11:29;;;;;;;0.73;0.30;;;;;;;;;;5009786;28;20196;-69
2022/02/02 05:16:55;;;;;;;0.47;0.30;;;;;;;;;;5010607;28;20185;-70
2022/02/02 05:20:03;;;;;;;0.10;0.10;;;;;;;;;;5009299;28;20219;-69
2022/02/02 05:50:27;;;;;;;1.60;0.87;;;;;;;;;;5003905;28;20240;-70
2022/02/02 05:52:55;;;;;;;0.43;0.43;;;;;;;;;;5003802;28;20207;-69
2022/02/02 05:55:22;;;;;;;0.20;0.20;;;;;;;;;;5003823;28;20209;-69
2022/02/02 05:57:51;;;;;;;0.63;0.53;;;;;;;;;;5001747;28;20224;-70
2022/02/02 06:00:18;;;;;;;0.00;0.00;;;;;;;;;;5003450;28;20197;-70
2022/02/02 06:02:47;;;;;;;0.17;0.17;;;;;;;;;;5004752;28;20200;-70
2022/02/02 06:05:15;;;;;;;0.00;0.00;;;;;;;;;;5003964;28;20196;-69
2022/02/02 06:07:43;;;;;;;0.00;0.00;;;;;;;;;;5002783;28;20199;-70
2022/02/02 06:10:14;;;;;;;4.70;0.87;;;;;;;;;;5003403;28;20664;-69
2022/02/02 06:12:43;;;;;;;0.00;0.00;;;;;;;;;;5001445;28;20225;-70
2022/02/02 06:15:16;;;;;;;0.43;0.10;;;;;;;;;;5002818;28;20232;-70
2022/02/02 06:17:48;;;;;;;0.20;0.20;;;;;;;;;;5002632;28;20696;-70
2022/02/02 06:20:16;;;;;;;0.10;0.10;;;;;;;;;;5003933;28;20201;-69
2022/02/02 06:22:47;;;;;;;0.40;0.33;;;;;;;;;;5003772;28;20185;-70
2022/02/02 06:25:19;;;;;;;0.10;0.10;;;;;;;;;;5000653;28;20201;-70
2022/02/02 06:27:49;;;;;;;0.20;0.20;;;;;;;;;;5002343;28;20313;-70
2022/02/02 06:30:19;;;;;;;0.03;0.03;;;;;;;;;;5002681;28;20658;-70
2022/02/02 06:32:48;;;;;;;0.97;0.20;;;;;;;;;;5002949;28;20201;-70
2022/02/02 06:35:16;;;;;;;0.00;0.00;;;;;;;;;;5002087;28;20701;-70
2022/02/02 06:37:44;;;;;;;0.40;0.40;;;;;;;;;;5002912;28;20202;-69
2022/02/02 06:40:12;;;;;;;0.20;0.20;;;;;;;;;;5006861;28;20189;-70
2022/02/02 06:42:40;;;;;;;0.30;0.30;;;;;;;;;;5009668;28;20195;-70
2022/02/02 06:45:07;;;;;;;0.17;0.10;;;;;;;;;;5007668;28;20216;-69
2022/02/02 06:47:37;;;;;;;0.30;0.30;;;;;;;;;;5009576;28;20547;-69
2022/02/02 06:50:09;;;;;;;2.77;0.30;;;;;;;;;;5009369;28;20201;-69
2022/02/02 06:52:42;;;;;;;0.00;0.00;;;;;;;;;;5009528;28;20267;-69
2022/02/02 06:55:21;;;;;;;0.20;0.20;;;;;;;;;;5008474;28;20216;-69
2022/02/02 06:57:55;;;;;;;7.83;1.20;;;;;;;;;;5007366;28;20246;-69
2022/02/02 07:00:34;;;;;;;0.53;0.53;;;;;;;;;;5007218;28;20203;-70
2022/02/02 07:03:14;;;;;;;0.00;0.00;;;;;;;;;;5009200;28;20193;-70
2022/02/02 07:05:51;;;;;;;1.80;0.40;;;;;;;;;;5008384;28;20247;-70
2022/02/02 07:08:30;;;;;;;0.60;0.30;;;;;;;;;;5009830;28;20204;-69
2022/02/02 07:11:11;;;;;;;0.43;0.43;;;;;;;;;;5007655;28;20193;-69
2022/02/02 07:13:51;;;;;;;0.80;0.80;;;;;;;;;;5007047;28;20228;-70
2022/02/02 07:16:35;;;;;;;0.10;0.10;;;;;;;;;;5008797;28;20246;-69
2022/02/02 07:19:14;;;;;;;2.73;0.20;;;;;;;;;;5010126;28;20275;-70
2022/02/02 09:23:56;;;;;;;0.13;0.13;;;;;;;;;;5082952;28;20540;-71
2022/02/02 09:31:25;;;;;;;0.00;0.00;;;;;;;;;;5065103;28;20209;-72
2022/02/02 09:34:41;;;;;;;0.10;0.10;;;;;;;;;;5066115;28;20651;-71
2022/02/02 09:37:08;;;;;;;0.33;0.33;;;;;;;;;;5082830;28;20265;-71
2022/02/02 09:39:42;;;;;;;0.30;0.30;;;;;;;;;;5072783;28;20675;-71
2022/02/02 09:42:12;;;;;;;0.10;0.10;;;;;;;;;;5066717;28;20729;-70
2022/02/02 09:44:44;;;;;;;0.00;0.00;;;;;;;;;;5076204;28;20727;-70
2022/02/02 09:47:21;;;;;;;0.20;0.20;;;;;;;;;;5064431;28;20199;-70
2022/02/02 09:49:56;;;;;;;0.43;0.43;;;;;;;;;;5073424;28;20255;-70
2022/02/02 09:52:27;;;;;;;0.00;0.00;;;;;;;;;;5076302;28;20190;-71
2022/02/02 09:55:05;;;;;;;0.40;0.20;;;;;;;;;;5082763;28;20195;-70
2022/02/02 10:06:12;;;;;;;0.00;0.00;;;;;;;;;;5055017;28;20305;-71
2022/02/02 10:14:51;;;;;;;0.40;0.40;;;;;;;;;;5072385;28;20237;-71
2022/02/02 10:17:30;;;;;;;0.37;0.37;;;;;;;;;;5080829;28;20190;-71
2022/02/02 10:19:57;;;;;;;0.17;0.13;;;;;;;;;;5080478;28;20214;-71
2022/02/02 10:22:29;;;;;;;0.27;0.13;;;;;;;;;;5076709;28;20215;-70
2022/02/02 10:25:00;;;;;;;0.50;0.30;;;;;;;;;;5064721;28;20191;-71
2022/02/02 10:27:32;;;;;;;0.40;0.33;;;;;;;;;;5053424;28;20231;-71
2022/02/02 10:30:09;;;;;;;0.10;0.10;;;;;;;;;;5059645;28;20198;-71
2022/02/02 10:32:40;;;;;;;0.00;0.00;;;;;;;;;;5058283;28;20636;-71
2022/02/02 10:35:08;;;;;;;0.10;0.10;;;;;;;;;;5068481;28;20198;-71
2022/02/02 10:37:36;;;;;;;0.00;0.00;;;;;;;;;;5064140;28;20262;-71
2022/02/02 10:40:04;;;;;;;0.20;0.20;;;;;;;;;;5051651;28;20229;-71
2022/02/02 10:42:36;;;;;;;0.00;0.00;;;;;;;;;;5048071;28;20256;-72
2022/02/02 10:45:20;;;;;;;0.00;0.00;;;;;;;;;;5049271;28;20259;-71
2022/02/02 10:47:52;;;;;;;0.10;0.10;;;;;;;;;;5036984;28;20208;-70
2022/02/02 10:50:26;;;;;;;0.00;0.00;;;;;;;;;;5043359;28;20211;-71
2022/02/02 10:53:28;;;;;;;0.00;0.00;;;;;;;;;;5047590;28;20195;-71
2022/02/02 10:56:17;;;;;;;0.00;0.00;;;;;;;;;;5050993;28;20195;-71
2022/02/02 10:59:14;;;;;;;0.30;0.13;;;;;;;;;;5065817;28;20191;-71
2022/02/02 11:01:47;;;;;;;0.00;0.00;;;;;;;;;;5050246;28;20232;-70
2022/02/02 11:07:02;;;;;;;0.00;0.00;;;;;;;;;;5068985;28;20321;-70
2022/02/02 11:09:31;;;;;;;0.00;0.00;;;;;;;;;;5058087;28;20551;-70
2022/02/02 11:11:59;;;;;;;0.00;0.00;;;;;;;;;;5067605;28;20296;-71
2022/02/02 11:14:35;;;;;;;0.00;0.00;;;;;;;;;;5049701;28;20199;-70
2022/02/02 11:17:06;;;;;;;0.00;0.00;;;;;;;;;;5059825;28;20606;-70
2022/02/02 11:19:36;;;;;;;0.00;0.00;;;;;;;;;;5053585;28;20191;-70
2022/02/02 11:22:19;;;;;;;0.00;0.00;;;;;;;;;;5053335;28;20227;-71
2022/02/02 11:24:46;;;;;;;0.00;0.00;;;;;;;;;;5049142;28;20199;-71
2022/02/02 11:27:28;;;;;;;0.00;0.00;;;;;;;;;;5064075;28;20200;-70
2022/02/02 11:29:55;;;;;;;0.00;0.00;;;;;;;;;;5053141;28;20206;-70
2022/02/02 11:32:23;;;;;;;0.00;0.00;;;;;;;;;;5059088;28;20230;-70
2022/02/02 11:35:12;;;;;;;0.00;0.00;;;;;;;;;;5045176;28;20195;-71
2022/02/02 11:37:54;;;;;;;0.00;0.00;;;;;;;;;;5055418;28;20549;-71
2022/02/02 11:40:22;;;;;;;0.00;0.00;;;;;;;;;;5059382;28;20192;-70
2022/02/02 11:42:55;;;;;;;0.10;0.10;;;;;;;;;;5048520;28;20342;-71
2022/02/02 11:45:52;;;;;;;0.00;0.00;;;;;;;;;;5060993;28;20247;-70
2022/02/02 11:48:34;;;;;;;0.00;0.00;;;;;;;;;;5068205;28;20224;-71
2022/02/02 11:51:03;;;;;;;0.00;0.00;;;;;;;;;;5049539;28;20199;-71
2022/02/02 11:53:50;;;;;;;0.00;0.00;;;;;;;;;;5049602;28;20195;-70
2022/02/02 11:56:18;;;;;;;0.00;0.00;;;;;;;;;;5064136;28;20544;-71
2022/02/02 11:58:46;;;;;;;0.00;0.00;;;;;;;;;;5064155;28;20555;-71
2022/02/02 12:01:19;;;;;;;0.00;0.00;;;;;;;;;;5049504;28;20219;-71
2022/02/02 12:03:57;;;;;;;0.00;0.00;;;;;;;;;;5067688;28;20191;-71
2022/02/02 12:06:39;;;;;;;0.00;0.00;;;;;;;;;;5049597;28;20651;-71
2022/02/02 12:09:16;;;;;;;0.00;0.00;;;;;;;;;;5050578;28;20195;-71
2022/02/02 12:48:44;;;;;;;0.00;0.00;;;;;;;;;;5053340;28;20227;-70
2022/02/02 12:57:08;;;;;;;0.00;0.00;;;;;;;;;;5024979;28;20209;-71
2022/02/02 12:59:43;;;;;;;0.00;0.00;;;;;;;;;;5023363;28;20673;-68
2022/02/02 13:02:12;;;;;;;0.00;0.00;;;;;;;;;;5041293;28;20294;-70
2022/02/02 13:04:40;;;;;;;0.00;0.00;;;;;;;;;;5024850;28;20748;-71
2022/02/02 13:07:11;;;;;;;0.00;0.00;;;;;;;;;;5028654;28;20805;-71
2022/02/02 13:09:39;;;;;;;0.00;0.00;;;;;;;;;;5026275;28;20222;-71
2022/02/02 13:12:32;;;;;;;0.00;0.00;;;;;;;;;;5023705;28;20243;-71
2022/02/02 13:20:52;;;;;;;0.00;0.00;;;;;;;;;;5028220;28;20927;-72
2022/02/02 13:23:26;;;;;;;0.00;0.00;;;;;;;;;;5031305;28;20196;-71
2022/02/02 13:25:55;;;;;;;0.00;0.00;;;;;;;;;;5034153;28;20241;-71
2022/02/02 13:28:47;;;;;;;0.00;0.00;;;;;;;;;;5027571;28;20255;-71
2022/02/02 13:31:28;;;;;;;0.00;0.00;;;;;;;;;;5041629;28;20192;-71
2022/02/02 13:34:16;;;;;;;0.00;0.00;;;;;;;;;;5047379;28;20206;-71
2022/02/02 13:36:56;;;;;;;0.00;0.00;;;;;;;;;;5053344;28;20742;-70
2022/02/02 13:45:39;;;;;;;0.00;0.00;;;;;;;;;;5039922;28;20200;-74
2022/02/02 13:48:42;;;;;;;0.10;0.10;;;;;;;;;;5049991;28;20187;-72
2022/02/02 13:54:12;;;;;;;0.00;0.00;;;;;;;;;;5050559;28;20192;-71
2022/02/02 13:59:55;;;;;;;0.00;0.00;;;;;;;;;;5044769;28;20763;-71
2022/02/02 14:08:12;;;;;;;0.00;0.00;;;;;;;;;;5008660;28;20196;-71
2022/02/02 14:10:59;;;;;;;0.00;0.00;;;;;;;;;;5053481;28;20748;-71
2022/02/02 14:32:47;;;;;;;0.00;0.00;;;;;;;;;;5044562;28;20214;-72
2022/02/02 14:35:18;;;;;;;0.00;0.00;;;;;;;;;;5045547;28;20199;-71
2022/02/02 14:37:45;;;;;;;0.00;0.00;;;;;;;;;;5042976;28;20210;-72
2022/02/02 14:40:23;;;;;;;0.00;0.00;;;;;;;;;;5043773;28;20198;-73
2022/02/02 14:42:54;;;;;;;0.00;0.00;;;;;;;;;;5044423;28;20214;-72
2022/02/02 14:45:25;;;;;;;0.00;0.00;;;;;;;;;;5045351;28;20195;-73
2022/02/02 14:48:00;;;;;;;0.23;0.23;;;;;;;;;;5045150;28;20196;-73
2022/02/02 14:50:32;;;;;;;0.00;0.00;;;;;;;;;;5045311;28;20620;-73
2022/02/02 14:53:13;;;;;;;0.10;0.10;;;;;;;;;;5044938;28;20211;-72
2022/02/02 14:56:08;;;;;;;0.10;0.10;;;;;;;;;;5044342;28;20209;-72
2022/02/02 15:29:07;;;;;;;0.63;0.63;;;;;;;;;;5039030;28;20222;-74
2022/02/02 15:31:36;;;;;;;0.00;0.00;;;;;;;;;;5038870;28;20208;-70
2022/02/02 15:34:06;;;;;;;0.00;0.00;;;;;;;;;;5036390;28;20200;-71
2022/02/02 15:37:16;;;;;;;0.37;0.37;;;;;;;;;;5040148;28;20205;-72
2022/02/02 15:39:49;;;;;;;0.17;0.17;;;;;;;;;;5036466;28;20204;-69
2022/02/02 15:42:35;;;;;;;0.47;0.30;;;;;;;;;;5036128;28;20201;-72
2022/02/02 15:59:06;;;;;;;0.00;0.00;;;;;;;;;;5037819;28;20241;-73
2022/02/02 16:04:24;;;;;;;0.03;0.03;;;;;;;;;;5040264;28;20242;-70
2022/02/02 16:06:53;;;;;;;0.53;0.43;;;;;;;;;;5038601;28;20215;-68
2022/02/02 16:09:25;;;;;;;0.10;0.10;;;;;;;;;;5039204;28;20219;-70
2022/02/02 16:12:07;;;;;;;1.13;0.70;;;;;;;;;;5041033;28;20223;-71
2022/02/02 16:14:41;;;;;;;0.30;0.30;;;;;;;;;;5046718;28;20202;-69
2022/02/02 16:36:31;;;;;;;0.00;0.00;;;;;;;;;;5042443;28;20207;-72
2022/02/02 16:39:01;;;;;;;0.00;0.00;;;;;;;;;;5043340;28;20187;-72
2022/02/02 16:44:15;;;;;;;0.00;0.00;;;;;;;;;;5042885;28;20195;-71
2022/02/02 16:46:43;;;;;;;0.00;0.00;;;;;;;;;;5044227;28;20211;-72
2022/02/02 16:49:10;;;;;;;0.63;0.57;;;;;;;;;;5044663;28;20203;-72
2022/02/02 16:51:38;;;;;;;0.00;0.00;;;;;;;;;;5043201;28;20207;-72
2022/02/02 16:54:09;;;;;;;0.03;0.03;;;;;;;;;;5043501;28;20219;-71
2022/02/02 16:56:54;;;;;;;0.00;0.00;;;;;;;;;;5044022;28;20273;-71
2022/02/02 17:32:49;;;;;;;0.43;0.20;;;;;;;;;;5029813;28;20658;-72
2022/02/02 17:35:30;;;;;;;0.63;0.63;;;;;;;;;;5041829;28;20282;-72
2022/02/02 17:38:06;;;;;;;0.00;0.00;;;;;;;;;;5040260;28;20195;-72
2022/02/02 17:40:54;;;;;;;0.00;0.00;;;;;;;;;;5051089;28;20282;-72
2022/02/02 17:56:12;;;;;;;0.00;0.00;;;;;;;;;;5040724;28;20296;-68
2022/02/02 17:58:12;;;;;;;0.10;0.10;;;;;;;;;;5045067;28;20308;-68
2022/02/02 18:19:57;;;;;;;0.10;0.10;;;;;;;;;;5051881;28;20208;-69
2022/02/02 18:22:36;;;;;;;0.63;0.47;;;;;;;;;;5053772;28;20203;-68
2022/02/02 18:25:12;;;;;;;0.00;0.00;;;;;;;;;;5049922;28;20195;-69
2022/02/02 18:27:47;;;;;;;0.00;0.00;;;;;;;;;;5047597;28;20696;-69
2022/02/02 18:30:26;;;;;;;0.77;0.60;;;;;;;;;;5044908;28;20265;-69
2022/02/02 18:33:09;;;;;;;0.17;0.17;;;;;;;;;;5042885;28;20602;-70
2022/02/02 18:35:42;;;;;;;0.10;0.10;;;;;;;;;;5041250;28;20199;-70
2022/02/02 18:47:02;;;;;;;0.40;0.40;;;;;;;;;;5016133;28;20552;-69
2022/02/02 18:52:51;;;;;;;0.50;0.50;;;;;;;;;;5013322;28;20587;-69
2022/02/02 18:55:45;;;;;;;1.20;0.87;;;;;;;;;;5053309;28;20286;-70
2022/02/02 18:58:23;;;;;;;0.33;0.20;;;;;;;;;;5033391;28;20293;-69
